Weather observations for the past three days for
Point Thomson Airstrip
Metric (Imperial)
Date Time (akdt) Wind (kph) Vis. (km) Weather Sky Cond. Temperature (ºC) Relative Humidity Wind Chill (°C) Heat Index (°C) Pressure Precipitation (cm)
Air Dwpt 6 hour altimeter (cm) sea level (mb) 1 hr 3 hr 6 hr
Max. Min.
21 08:15 Calm 16.09 Fair CLR 2.7 -1 77% 76.61 0.0
21 07:55 NE 6 16.09 Fair CLR 2.2 -1.5 77% 76.63 0.0
21 07:35 NE 7 16.09 Fair CLR 2 -1.5 78% 0 76.63 0.0
21 07:15 N 6 16.09 Fair CLR 2.5 -1.2 77% 76.61 0.0
21 06:55 NE 6 16.09 Fair CLR 2.3 -0.5 82% 76.58 0.0
21 06:35 E 6 16.09 Fair CLR 1.2 -0.7 87% 76.63 0.0
21 06:15 E 6 16.09 Fair CLR 0.7 -1.4 86% 76.63 0.0
21 05:55 NE 7 16.09 Fair CLR 0.1 -1.5 89% -2 76.63 0.0
21 05:35 N 11 16.09 Fair CLR -0.2 -2 88% -3 76.58 0.0
21 05:15 NE 9 16.09 Fair CLR -0.4 -1.7 91% -3 76.58 0.0
21 04:55 N 9 16.09 Fair CLR -0.8 -2.2 90% -4 76.58 0.0
21 04:35 N 9 16.09 Fair CLR -1 -2.3 91% -4 76.58 0.0
21 04:15 N 9 16.09 Fair CLR -1 -2.4 90% -4 76.58 0.0
21 03:55 N 7 16.09 Fair CLR -1 -2.3 1.3 -1.5 91% -3 76.61 0.0
21 03:35 N 7 16.09 Fair CLR -1.1 -2.4 91% -3 76.63 0.0
21 03:15 N 7 16.09 Fair CLR -1.2 -2.5 91% -4 76.63 0.0
21 02:55 NE 7 16.09 Fair CLR -1.2 -2.5 91% -4 76.61 0.0
21 02:35 N 9 16.09 Fair CLR -1.5 -3 90% -4 76.61 0.0
21 02:15 NE 7 16.09 Fair CLR -1.3 -2.9 89% -4 76.58 0.0
21 01:55 NE 7 16.09 Fair CLR -1 -2.9 87% -3 76.63 0.0
21 01:35 NE 7 16.09 Fair CLR -1 -2.7 88% -3 76.63 0.0
21 01:15 NE 7 16.09 Fair CLR -0.7 -2.5 88% -3 76.66 0.0
21 00:55 NE 9 16.09 Fair CLR -0.5 -2.5 87% -3 76.66 0.0
21 00:35 NE 9 16.09 Fair CLR 0 -2.2 85% -3 76.66 0.0
21 00:15 NE 9 16.09 Fair CLR 0 -2.1 86% -3 76.61 0.0
20 23:55 E 9 16.09 Fair CLR 0.2 -2.4 83% -3 76.66 0.0
20 23:35 E 11 16.09 Fair CLR 0.6 -2 83% -2 76.66 0.0
20 23:15 NE 11 16.09 Fair CLR 0.8 -1.9 82% -2 76.61 0.0
20 22:55 E 11 16.09 Fair CLR 0.7 -2 82% -2 76.66 0.0
20 22:35 NE 13 16.09 Fair CLR 1.2 -1.8 81% -2 76.66 0.0
20 22:15 NE 13 16.09 Fair CLR 0.8 -1.9 82% -3 76.68 0.0
20 21:55 NE 15 16.09 Fair CLR 1.2 -1.8 3 1 81% -3 76.68 0.0
20 21:35 NE 15 16.09 Fair CLR 1.5 -1.8 79% -2 76.68 0.0
20 21:15 NE 15 16.09 Fair CLR 1.5 -2.1 77% -2 76.63 0.0
20 20:55 NE 13 16.09 Fair CLR 1.8 -1.8 77% -1 76.71 0.0
20 20:35 NE 17 16.09 Fair CLR 1.8 -1.8 77% -2 76.71 0.0
20 20:15 NE 15 16.09 Fair CLR 1.8 -2 76% -2 76.66 0.0
20 19:55 NE 15 16.09 Fair CLR 2.2 -2 74% -1 76.73 0.0
20 19:35 NE 15 16.09 Fair CLR 2.2 -2 74% -1 76.73 0.0
20 19:15 NE 15 16.09 Fair CLR 1.7 -1.9 77% -2 76.73 0.0
20 18:55 NE 15 16.09 Fair CLR 2.3 -1.6 76% -1 76.73 0.0
20 18:35 NE 15 16.09 Fair CLR 2.5 -1.8 74% -1 76.73 0.0
20 18:15 NE 11 16.09 Fair CLR 2.6 -1.9 73% -0 76.73 0.0
20 17:55 NE 11 16.09 Fair CLR 2.5 -1.7 74% -0 76.76 0.0
20 17:35 NE 9 16.09 Partly Cloudy SCT006 1.5 -1.7 80% -1 76.76 0.0
20 17:15 N 11 16.09 Overcast OVC006 1.3 -2.4 77% -2 76.76 0.0
20 16:55 NE 13 16.09 Mostly Cloudy BKN008 2 -1.7 77% -1 76.76 0.0
20 16:35 NE 9 16.09 Mostly Cloudy BKN006 2.9 -1 76% 1 76.76 0.0
20 16:15 Calm 16.09 Overcast OVC006 1.1 -1.8 81% 76.76 0.0
20 15:55 NE 7 16.09 Overcast OVC006 1.2 -1.7 1.7 0.5 81% -1 76.78 0.0
20 15:35 NE 9 16.09 Overcast OVC006 0.5 -2 84% -2 76.81 0.0
20 15:15 N 9 16.09 Overcast OVC006 0.6 -1.6 85% -2 76.81 0.0
20 14:55 N 9 16.09 Overcast OVC006 0.7 -1.9 83% -2 76.81 0.0
20 14:35 N 9 16.09 Overcast OVC006 1 -1.5 84% -2 76.81 0.0
20 14:15 N 11 16.09 Overcast OVC006 1.2 -1.1 85% -2 76.81 0.0
20 13:55 N 15 16.09 Overcast OVC006 1 -1.4 84% -3 76.81 0.0
20 13:35 N 11 16.09 Overcast OVC006 1 -1.1 86% -2 76.81 0.0
20 13:15 N 13 16.09 Overcast OVC006 1.3 -1.1 84% -2 76.81 0.0
20 12:55 N 13 16.09 Overcast OVC006 1.6 -0.9 84% -2 76.76 0.0
20 12:35 N 11 16.09 Overcast OVC006 1.6 -0.5 86% -1 76.81 0.0
20 12:15 N 9 16.09 Overcast OVC006 1.4 -0.7 86% -1 76.81 0.0
20 11:55 N 11 16.09 Overcast OVC006 1.3 -0.5 88% -2 76.81 0.0
20 11:35 N 13 16.09 Overcast OVC008 1.1 -0.6 89% -2 76.78 0.0
20 11:15 N 11 16.09 Overcast OVC008 0.9 -0.5 90% -2 76.78 0.0
20 10:55 N 13 11.27 Overcast OVC008 1 -0.5 90% -2 76.76 0.0
20 10:35 N 11 8.05 Fog/Mist OVC008 1 -0.5 90% -2 76.81 0.0
20 10:15 N 9 8.05 Fog/Mist OVC006 1 -0.4 91% -2 76.78 0.0
20 09:55 N 9 11.27 Overcast OVC006 1.2 -0.2 1.5 0 91% -1 76.81 0.0
20 09:35 N 7 11.27 Overcast OVC006 1.5 0 90% -0 76.78 0.0
20 09:15 N 6 11.27 Overcast OVC006 1.5 0.1 91% 76.73 0.0
20 08:55 Calm 11.27 Overcast OVC006 1.3 0.1 92% 76.78 0.0
20 08:35 Calm 16.09 Overcast OVC006 1 0 93% 76.78 0.0
20 08:15 Calm 16.09 Overcast OVC006 0.8 -0.1 94% 76.76 0.0
20 07:55 Calm 16.09 Overcast OVC006 0.6 -0.2 94% 76.78 0.0
20 07:35 Calm 16.09 Overcast OVC006 0.7 -0.1 94% 76.78 0.0
20 07:15 N 6 16.09 Overcast OVC004 0.9 0 94% 76.73 0.0
20 06:55 Calm 16.09 Overcast OVC004 0.8 0 94% 76.76 0.0
20 06:35 Calm 16.09 Overcast BKN004 OVC009 0.8 0 94% 76.76 0.0
20 06:15 Calm 16.09 Overcast OVC007 0.6 0 96% 76.76 0.0
20 05:55 Calm 16.09 Overcast OVC005 0.6 0 96% 76.73 0.0
20 05:35 Calm 16.09 Overcast BKN005 OVC009 0.6 0 96% 76.76 0.0
20 05:15 Calm 16.09 Overcast SCT005 OVC009 0.5 0 97% 76.76 0.0
20 04:55 Calm 16.09 Overcast BKN005 OVC009 0.5 0 97% 76.73 0.0
20 04:35 Calm 16.09 Overcast BKN005 OVC009 0.1 -0.3 97% 76.73 0.0
20 04:15 Calm 16.09 Overcast OVC005 0 -0.6 96% 76.68 0.0
20 03:55 Calm 16.09 Overcast OVC005 0 -0.7 3.1 -1 95% 76.68 0.0
20 03:35 Calm 16.09 Overcast OVC005 0 -0.7 95% 76.73 0.0
20 03:15 Calm 16.09 Overcast BKN005 OVC015 0 -0.8 94% 76.73 0.0
20 02:55 Calm 16.09 Overcast SCT005 OVC015 0 -1 93% 76.71 0.0
20 02:35 Calm 16.09 Overcast OVC005 -0.2 -1 94% 76.71 0.0
20 02:15 Calm 16.09 Overcast OVC003 -0.5 -1.5 93% 76.71 0.0
20 01:55 Calm 0.40 Freezing Fog OVC003 -0.8 -1.8 93% 76.71 0.0
20 01:35 Calm 0.24 Freezing Fog OVC003 -1 -2 93% 76.66 0.0
20 01:15 Calm 0.24 Freezing Fog OVC003 -1 -2.1 92% 76.63 0.0
20 00:55 Calm 0.40 Freezing Fog OVC003 -1 -2.3 91% 76.63 0.0
20 00:35 N 7 4.02 Fog/Mist OVC001 -1 -2.6 89% -3 76.66 0.0
20 00:15 Calm 0.80 Freezing Fog OVC001 -0.4 -2.5 86% 76.66 0.0
19 23:55 NE 6 16.09 Fair CLR 0.5 -1.1 89% 76.66 0.0
19 23:35 NE 6 16.09 Partly Cloudy SCT001 0.6 -1.2 88% 76.61 0.0
19 23:15 NE 9 16.09 Fair CLR 1.4 -1 84% -1 76.66 0.0
19 22:55 NE 11 16.09 Fair CLR 2.3 -0.6 81% -0 76.66 0.0
19 22:35 NE 11 16.09 Fair CLR 2.7 -0.6 79% 0 76.66 0.0
19 22:15 NE 9 16.09 Fair CLR 3 -0.6 77% 1 76.63 0.0
19 21:55 E 11 16.09 Fair CLR 3 -0.6 6 2.1 77% 0 76.63 0.0
19 21:35 NE 15 16.09 Fair CLR 2.9 -0.8 77% -0 76.63 0.0
19 21:15 NE 13 16.09 Fair CLR 2.1 -1.5 77% -1 76.58 0.0
19 20:55 NE 13 16.09 Fair CLR 2.1 -1.3 78% -1 76.61 0.0
19 20:35 NE 13 16.09 Fair CLR 3.5 -1.1 72% 1 76.61 0.0
19 20:15 NE 15 16.09 Fair CLR 3.2 -1.1 74% -0 76.61 0.0
19 19:55 NE 15 16.09 Fair CLR 3.5 -1.2 72% 0 76.61 0.0
19 19:35 NE 15 16.09 Fair CLR 3.1 -0.8 76% -0 76.61 0.0
19 19:15 NE 13 16.09 Fair CLR 3 -0.7 77% 0 76.61 0.0
19 18:55 NE 15 16.09 Fair CLR 4 -0.6 72% 1 76.61 0.0
19 18:35 NE 13 16.09 Fair CLR 4.5 -0.4 71% 2 76.61 0.0
19 18:15 NE 15 16.09 Fair CLR 6 0 66% 3 76.61 0.0
19 17:55 NE 15 16.09 Fair CLR 6 0 66% 3 76.61 0.0
19 17:35 NE 15 16.09 Fair CLR 5.6 0 68% 3 76.61 0.0
19 17:15 NE 15 16.09 Fair CLR 5.3 -0.2 68% 2 76.61 0.0
19 16:55 NE 15 16.09 Fair CLR 5 -0.2 69% 2 76.61 0.0
19 16:35 NE 17 16.09 Fair CLR 5.3 -0.1 68% 2 76.61 0.0
19 16:15 NE 15 16.09 Fair CLR 5.3 -0.2 68% 2 76.58 0.0
19 15:55 NE 17 16.09 Fair CLR 5.3 -0.1 5.6 2.3 68% 2 76.58 0.0
19 15:35 NE 17 16.09 Partly Cloudy SCT018 5.2 -0.3 68% 2 76.58 0.0
19 15:15 NE 19 16.09 Mostly Cloudy BKN018 5.1 -0.5 67% 2 76.58 0.0
19 14:55 NE 19 16.09 Overcast OVC018 5.2 -0.7 66% 2 76.58 0.0
19 14:35 NE 19 16.09 Mostly Cloudy BKN018 5.5 -0.7 65% 2 76.58 0.0
19 14:15 NE 19 16.09 Partly Cloudy SCT018 4.8 -0.7 68% 1 76.58 0.0
19 13:55 NE 17 16.09 Mostly Cloudy BKN018 5.2 -0.7 66% 2 76.58 0.0
19 13:35 NE 17 16.09 Overcast OVC020 4.9 -0.6 68% 2 76.58 0.0
19 13:15 NE 17 16.09 Overcast OVC020 4.5 -1 68% 1 76.58 0.0
19 12:55 NE 19 16.09 Overcast OVC020 4.3 -1 69% 1 76.58 0.0
19 12:35 NE 17 16.09 Overcast OVC022 4 -1 70% 1 76.56 0.0
19 12:15 NE 19 16.09 Overcast OVC022 3.9 -1.2 70% 0 76.56 0.0
19 11:55 NE 19 16.09 Overcast OVC022 3.8 -1.2 70% 0 76.56 0.0
19 11:35 NE 17 16.09 Overcast OVC022 3.8 -1.2 70% 0 76.53 0.0
19 11:15 NE 20 16.09 Mostly Cloudy BKN022 3.7 -1.5 69% -0 76.48 0.0
19 10:55 NE 17 16.09 Partly Cloudy SCT022 3.5 -1.3 71% 0 76.53 0.0
19 10:35 NE 19 16.09 Fair CLR 3.2 -1.3 73% -1 76.53 0.0
19 10:15 NE 17 16.09 Fair CLR 2.6 -1.2 76% -1 76.53 0.0
19 09:55 NE 17 16.09 Fair CLR 2.2 -1 2.3 -1 80% -2 76.5 0.0
19 09:35 NE 17 16.09 Fair CLR 2.1 -0.1 86% -2 76.5 0.0
19 09:15 E 19 16.09 Fair CLR 1.8 -0.2 87% -2 76.45 0.0
19 08:55 NE 17 16.09 Fair CLR 1.5 0 90% -2 76.48 0.0
19 08:35 NE 19 16.09 Fair CLR 1.3 -0.5 88% -3 76.48 0.0
19 08:15 E 17 16.09 Fair CLR 1.5 0 90% -2 76.45 0.0
19 07:55 E 20 16.09 Partly Cloudy SCT004 1 -0.2 92% -4 76.45 0.0
19 07:35 NE 19 16.09 Partly Cloudy SCT004 0.9 -0.4 91% -3 76.4 0.0
19 07:15 E 19 16.09 Mostly Cloudy BKN004 0.8 -0.2 93% -4 76.43 0.0
19 06:55 E 22 16.09 Partly Cloudy SCT004 0.5 -0.5 93% -4 76.43 0.0
19 06:35 E 22 16.09 Mostly Cloudy BKN004 0.2 -0.6 94% -5 76.4 0.0
19 06:15 E 22 16.09 Overcast OVC002 0 -0.8 94% -5 76.4 0.0
19 05:55 E 20 16.09 Overcast OVC002 -0.1 -1.2 92% -5 76.35 0.0
19 05:35 E 19 16.09 Overcast OVC002 -0.2 -1.2 93% -5 76.4 0.0
19 05:15 E 22 16.09 Overcast OVC002 -0.5 -1.7 92% -6 76.38 0.0
19 04:55 E 19 16.09 Overcast OVC002 -0.3 -1.7 90% -5 76.33 0.0
19 04:35 E 19 16.09 Overcast OVC002 -0.7 -2 91% -5 76.38 0.0
19 04:15 E 22 3.22 Fog/Mist OVC002 -0.9 -2.4 90% -6 76.33 0.0
19 03:55 E 19 11.27 Overcast OVC002 -0.6 -2.3 1 -1.2 88% -5 76.35 0.0
19 03:35 NE 19 G 26 16.09 Overcast OVC002 -1 -2.5 90% -6 76.28 0.0
19 03:15 NE 20 16.09 Overcast OVC002 -0.7 -2.4 88% -6 76.28 0.0
19 02:55 NE 19 11.27 Overcast OVC002 -1 -2.3 91% -6 76.3 0.0
19 02:35 NE 19 0.80 Freezing Fog OVC002 -1 -2.5 90% -6 76.25 0.0
19 02:15 NE 20 0.80 Freezing Fog OVC002 -0.9 -2.4 90% -6 76.3 0.0
19 01:55 E 22 0.80 Freezing Fog OVC002 -1 -2.4 90% -6 76.3 0.0
19 01:35 E 26 0.80 Freezing Fog OVC002 -1.1 -2.5 90% -7 76.23 0.0
19 01:15 E 24 0.80 Freezing Fog OVC002 -0.9 -2.1 92% -6 76.28 0.0
19 00:55 E 24 0.80 Freezing Fog OVC002 -1 -2.1 92% -7 76.28 0.0
19 00:35 E 24 1.21 Fog/Mist OVC002 -1.1 -2.1 93% -7 76.2 0.0
19 00:15 E 24 0.80 Freezing Fog OVC002 -0.6 -2 90% -6 76.25 0.0
18 23:55 E 28 G 35 0.80 Freezing Fog OVC002 -0.5 -2 90% -6 76.23 0.0
18 23:35 E 30 2.82 Fog/Mist OVC002 -0.2 -2 88% -6 76.17 0.0
18 23:15 E 22 11.27 Overcast OVC002 0 -1.7 88% -5 76.2 0.0
18 22:55 E 28 2.41 Fog/Mist OVC002 0 -1.6 89% -6 76.23 0.0
18 22:35 E 26 G 35 16.09 Overcast OVC004 0.4 -1.6 87% -5 76.23 0.0
18 22:15 E 24 G 33 16.09 Overcast OVC004 0.8 -1.5 85% -4 76.17 0.0
18 21:55 E 28 11.27 Overcast OVC004 0.7 -1.5 3 0.7 85% -5 76.23 0.0
18 21:35 E 28 16.09 Overcast OVC004 1 -1.2 85% -5 76.2 0.0
18 21:15 E 31 G 39 16.09 Overcast OVC004 1.5 -1.3 82% -4 76.2 0.0
18 20:55 E 30 G 35 16.09 Mostly Cloudy BKN004 1.5 -1.2 82% -4 76.2 0.0
18 20:35 E 31 G 37 16.09 Partly Cloudy SCT004 1.7 -1.1 82% -4 76.2 0.0
18 20:15 E 33 16.09 Partly Cloudy and Breezy SCT004 1.5 -1.2 82% -4 76.17 0.0
18 19:55 E 33 G 39 16.09 Mostly Cloudy and Breezy BKN004 1.8 -1.1 81% -4 76.17 0.0
18 19:35 NE 28 G 37 16.09 Partly Cloudy SCT004 2.1 -1.1 80% -3 76.17 0.0
18 19:15 NE 30 16.09 Fair CLR 2.2 -1.1 79% -3 76.17 0.0
18 18:55 NE 31 16.09 Partly Cloudy SCT004 2.3 -1 79% -3 76.15 0.0
18 18:35 NE 28 16.09 Partly Cloudy SCT004 2 -1 81% -3 76.15 0.0
18 18:15 NE 30 16.09 Fair CLR 2.5 -1 78% -3 76.15 0.0
18 17:55 NE 26 G 41 16.09 Partly Cloudy SCT004 2.6 -0.7 79% -2 76.15 0.0
18 17:35 NE 28 G 39 16.09 Mostly Cloudy BKN004 2.5 -1 78% -3 76.12 0.0
18 17:15 NE 28 16.09 Mostly Cloudy BKN004 2.3 -1 79% -3 76.12 0.0
18 16:55 NE 33 16.09 Partly Cloudy and Breezy FEW004 SCT190 2.8 -0.7 78% -3 76.12 0.0
18 16:35 NE 31 G 41 16.09 Partly Cloudy FEW004 SCT190 2.9 -0.7 77% -2 76.12 0.0
18 16:15 NE 33 G 39 4.83 Partly Cloudy with Haze and Breezy FEW004 SCT190 2.9 -0.6 78% -3 76.12 0.0
18 15:55 E 30 G 39 16.09 Partly Cloudy SCT004 2.9 -0.7 3 -0.1 77% -2 76.12 0.0
18 15:35 NE 30 16.09 Partly Cloudy SCT004 2.5 -0.8 79% -3 76.12 0.0
18 15:15 NE 30 G 39 16.09 Partly Cloudy SCT005 2.7 -0.7 79% -3 76.1 0.0
18 14:55 NE 35 G 43 16.09 Partly Cloudy and Breezy SCT004 2.7 -0.8 78% -3 76.1 0.0
18 14:35 NE 33 16.09 Mostly Cloudy and Breezy BKN006 2.9 -0.6 78% -3 76.1 0.0
18 14:15 NE 31 G 39 16.09 Mostly Cloudy BKN006 2.6 -0.8 79% -3 76.1 0.0
18 13:55 NE 33 G 41 16.09 Partly Cloudy and Breezy SCT006 2.8 -0.7 78% -3 76.1 0.0
18 13:35 NE 30 G 35 16.09 Partly Cloudy SCT006 3 0.1 81% -2 76.1 0.0
18 13:15 NE 30 G 37 16.09 Partly Cloudy SCT006 2.9 0.2 83% -2 76.1 0.0
18 12:55 E 31 G 39 16.09 Partly Cloudy FEW005 SCT180 2.6 0.1 84% -3 76.07 0.0
18 12:35 NE 30 16.09 Partly Cloudy FEW005 SCT180 2.8 0.5 85% -2 76.07 0.0
18 12:15 E 30 16.09 Partly Cloudy FEW005 SCT180 2.2 0.1 86% -3 76.07 0.0
18 11:55 E 28 16.09 Mostly Cloudy SCT005 BKN180 2 0 87% -3 76.07 0.0
18 11:35 E 28 16.09 Overcast OVC004 1.5 0.1 91% -4 76.07 0.0
18 11:15 E 31 16.09 Overcast OVC004 1.2 0 92% -5 76.02 0.0
18 10:55 E 31 G 39 16.09 Overcast OVC004 0.5 -0.5 93% -6 76.02 0.0
18 10:35 E 30 16.09 Overcast OVC004 0.4 -0.6 93% -5 76.05 0.0
18 10:15 E 28 16.09 Overcast OVC004 -0.1 -1.5 90% -6 76.07 0.0
18 09:55 E 28 G 35 16.09 Overcast OVC004 0 -0.8 0.1 -2.3 94% -6 76.07 0.0
18 09:35 E 20 16.09 Unknown Precip OVC004 0 -1 93% -5 76.02 0.0
18 09:15 E 24 16.09 Overcast OVC004 -0.3 -1.4 92% -6 76.02 0.0
18 08:55 E 22 16.09 Overcast OVC004 -0.5 -1.6 92% -6 76.07 0.0
Date Time (akdt) Wind (kph) Vis. (km) Weather Sky Cond. Air Dwpt Max. Min. Relative Humidity Wind Chill (°C) Heat Index (°C) altimeter (cm) sea level (mb) 1 hr 3 hr 6 hr
6 hour
Temperature (ºC) Pressure Precipitation (cm)